sensor_id;sensor_type;location;lat;lon;timestamp;temperature;humidity
6496;DHT22;3281;47.658;9.166;2022-09-09T00:00:44;15.00;22.80
6496;DHT22;3281;47.658;9.166;2022-09-09T00:03:17;15.00;25.10
6496;DHT22;3281;47.658;9.166;2022-09-09T00:05:54;15.00;26.00
6496;DHT22;3281;47.658;9.166;2022-09-09T00:08:28;14.90;22.50
6496;DHT22;3281;47.658;9.166;2022-09-09T00:11:00;14.90;26.60
6496;DHT22;3281;47.658;9.166;2022-09-09T00:13:34;14.90;25.80
6496;DHT22;3281;47.658;9.166;2022-09-09T00:16:07;14.90;28.20
6496;DHT22;3281;47.658;9.166;2022-09-09T00:18:45;15.00;27.60
6496;DHT22;3281;47.658;9.166;2022-09-09T00:21:16;15.10;29.30
6496;DHT22;3281;47.658;9.166;2022-09-09T00:23:46;15.00;25.60
6496;DHT22;3281;47.658;9.166;2022-09-09T00:26:19;14.90;21.20
6496;DHT22;3281;47.658;9.166;2022-09-09T00:28:52;14.90;27.10
6496;DHT22;3281;47.658;9.166;2022-09-09T00:31:26;14.90;24.70
6496;DHT22;3281;47.658;9.166;2022-09-09T00:33:54;14.80;25.50
6496;DHT22;3281;47.658;9.166;2022-09-09T00:36:27;14.70;24.90
6496;DHT22;3281;47.658;9.166;2022-09-09T00:38:56;14.90;30.10
6496;DHT22;3281;47.658;9.166;2022-09-09T00:41:31;14.90;27.90
6496;DHT22;3281;47.658;9.166;2022-09-09T00:44:02;14.90;27.80
6496;DHT22;3281;47.658;9.166;2022-09-09T00:46:54;14.90;29.90
6496;DHT22;3281;47.658;9.166;2022-09-09T00:49:32;15.00;29.60
6496;DHT22;3281;47.658;9.166;2022-09-09T00:52:16;14.90;28.80
6496;DHT22;3281;47.658;9.166;2022-09-09T00:54:52;14.90;29.90
6496;DHT22;3281;47.658;9.166;2022-09-09T00:57:26;14.80;28.00
6496;DHT22;3281;47.658;9.166;2022-09-09T01:00:00;14.80;29.60
6496;DHT22;3281;47.658;9.166;2022-09-09T01:02:32;14.90;29.90
6496;DHT22;3281;47.658;9.166;2022-09-09T01:05:10;14.90;28.00
6496;DHT22;3281;47.658;9.166;2022-09-09T01:07:41;15.00;30.00
6496;DHT22;3281;47.658;9.166;2022-09-09T01:10:16;14.90;29.90
6496;DHT22;3281;47.658;9.166;2022-09-09T01:12:48;14.80;29.80
6496;DHT22;3281;47.658;9.166;2022-09-09T01:15:21;14.90;32.40
6496;DHT22;3281;47.658;9.166;2022-09-09T01:17:54;14.90;30.00
6496;DHT22;3281;47.658;9.166;2022-09-09T01:20:27;14.80;29.80
6496;DHT22;3281;47.658;9.166;2022-09-09T01:23:10;14.90;33.20
6496;DHT22;3281;47.658;9.166;2022-09-09T01:26:09;14.80;29.80
6496;DHT22;3281;47.658;9.166;2022-09-09T01:28:37;14.70;29.70
6496;DHT22;3281;47.658;9.166;2022-09-09T01:31:06;14.80;33.10
6496;DHT22;3281;47.658;9.166;2022-09-09T01:33:35;14.80;32.30
6496;DHT22;3281;47.658;9.166;2022-09-09T01:36:06;14.90;32.60
6496;DHT22;3281;47.658;9.166;2022-09-09T01:38:34;15.00;35.30
6496;DHT22;3281;47.658;9.166;2022-09-09T01:41:04;15.00;35.40
6496;DHT22;3281;47.658;9.166;2022-09-09T01:43:31;14.90;33.70
6496;DHT22;3281;47.658;9.166;2022-09-09T01:46:00;14.90;35.30
6496;DHT22;3281;47.658;9.166;2022-09-09T01:48:28;14.60;29.70
6496;DHT22;3281;47.658;9.166;2022-09-09T01:50:55;14.60;32.50
6496;DHT22;3281;47.658;9.166;2022-09-09T01:53:22;14.70;35.70
6496;DHT22;3281;47.658;9.166;2022-09-09T01:55:57;14.80;35.30
6496;DHT22;3281;47.658;9.166;2022-09-09T01:58:32;14.80;35.40
6496;DHT22;3281;47.658;9.166;2022-09-09T02:01:06;14.80;35.20
6496;DHT22;3281;47.658;9.166;2022-09-09T02:03:35;14.90;35.30
6496;DHT22;3281;47.658;9.166;2022-09-09T02:06:11;14.70;35.20
6496;DHT22;3281;47.658;9.166;2022-09-09T02:08:44;14.60;34.70
6496;DHT22;3281;47.658;9.166;2022-09-09T02:11:14;14.60;38.80
6496;DHT22;3281;47.658;9.166;2022-09-09T02:13:44;14.60;35.10
6496;DHT22;3281;47.658;9.166;2022-09-09T02:16:15;14.80;40.70
6496;DHT22;3281;47.658;9.166;2022-09-09T02:18:47;14.70;35.20
6496;DHT22;3281;47.658;9.166;2022-09-09T02:21:17;14.60;35.10
6496;DHT22;3281;47.658;9.166;2022-09-09T02:23:47;14.80;37.40
6496;DHT22;3281;47.658;9.166;2022-09-09T02:26:15;14.80;38.00
6496;DHT22;3281;47.658;9.166;2022-09-09T02:28:47;14.90;37.20
6496;DHT22;3281;47.658;9.166;2022-09-09T02:31:17;14.90;38.40
6496;DHT22;3281;47.658;9.166;2022-09-09T02:33:48;14.90;40.40
6496;DHT22;3281;47.658;9.166;2022-09-09T02:36:19;14.80;37.00
6496;DHT22;3281;47.658;9.166;2022-09-09T02:38:47;14.90;42.80
6496;DHT22;3281;47.658;9.166;2022-09-09T02:41:16;14.90;40.20
6496;DHT22;3281;47.658;9.166;2022-09-09T02:43:43;15.00;41.40
6496;DHT22;3281;47.658;9.166;2022-09-09T02:46:24;15.10;43.60
6496;DHT22;3281;47.658;9.166;2022-09-09T02:48:59;15.00;39.70
6496;DHT22;3281;47.658;9.166;2022-09-09T02:51:33;15.00;40.30
6496;DHT22;3281;47.658;9.166;2022-09-09T02:54:10;15.10;40.90
6496;DHT22;3281;47.658;9.166;2022-09-09T02:56:44;15.20;43.60
6496;DHT22;3281;47.658;9.166;2022-09-09T02:59:13;15.20;43.10
6496;DHT22;3281;47.658;9.166;2022-09-09T03:01:41;15.20;44.20
6496;DHT22;3281;47.658;9.166;2022-09-09T03:04:09;15.20;46.40
6496;DHT22;3281;47.658;9.166;2022-09-09T03:06:36;15.30;47.20
6496;DHT22;3281;47.658;9.166;2022-09-09T03:09:03;15.40;46.60
6496;DHT22;3281;47.658;9.166;2022-09-09T03:11:30;15.40;46.60
6496;DHT22;3281;47.658;9.166;2022-09-09T03:13:56;15.50;47.00
6496;DHT22;3281;47.658;9.166;2022-09-09T03:16:23;15.50;46.70
6496;DHT22;3281;47.658;9.166;2022-09-09T03:18:51;15.50;46.70
6496;DHT22;3281;47.658;9.166;2022-09-09T03:21:18;15.60;46.70
6496;DHT22;3281;47.658;9.166;2022-09-09T03:23:45;15.60;44.70
6496;DHT22;3281;47.658;9.166;2022-09-09T03:26:12;15.60;46.70
6496;DHT22;3281;47.658;9.166;2022-09-09T03:28:40;15.70;46.80
6496;DHT22;3281;47.658;9.166;2022-09-09T03:31:08;15.70;47.00
6496;DHT22;3281;47.658;9.166;2022-09-09T03:33:35;15.70;43.90
6496;DHT22;3281;47.658;9.166;2022-09-09T03:36:04;15.70;45.00
6496;DHT22;3281;47.658;9.166;2022-09-09T03:38:31;15.80;45.50
6496;DHT22;3281;47.658;9.166;2022-09-09T03:40:59;15.80;48.00
6496;DHT22;3281;47.658;9.166;2022-09-09T03:43:28;15.90;47.00
6496;DHT22;3281;47.658;9.166;2022-09-09T03:45:55;15.90;40.20
6496;DHT22;3281;47.658;9.166;2022-09-09T03:48:23;16.00;39.70
6496;DHT22;3281;47.658;9.166;2022-09-09T03:50:51;16.10;39.80
6496;DHT22;3281;47.658;9.166;2022-09-09T03:53:21;16.10;43.60
6496;DHT22;3281;47.658;9.166;2022-09-09T03:55:51;16.10;41.80
6496;DHT22;3281;47.658;9.166;2022-09-09T03:58:20;16.10;41.50
6496;DHT22;3281;47.658;9.166;2022-09-09T04:00:53;16.10;44.40
6496;DHT22;3281;47.658;9.166;2022-09-09T04:03:20;16.10;41.90
6496;DHT22;3281;47.658;9.166;2022-09-09T04:05:48;16.10;39.30
6496;DHT22;3281;47.658;9.166;2022-09-09T04:08:15;16.10;41.90
6496;DHT22;3281;47.658;9.166;2022-09-09T04:10:44;16.10;41.70
6496;DHT22;3281;47.658;9.166;2022-09-09T04:13:11;16.20;42.00
6496;DHT22;3281;47.658;9.166;2022-09-09T04:15:39;16.10;34.30
6496;DHT22;3281;47.658;9.166;2022-09-09T04:18:06;16.10;25.50
6496;DHT22;3281;47.658;9.166;2022-09-09T04:20:33;16.20;30.70
6496;DHT22;3281;47.658;9.166;2022-09-09T04:23:00;16.30;26.60
6496;DHT22;3281;47.658;9.166;2022-09-09T04:25:27;16.30;26.80
6496;DHT22;3281;47.658;9.166;2022-09-09T04:27:55;16.30;26.70
6496;DHT22;3281;47.658;9.166;2022-09-09T04:30:23;16.20;27.40
6496;DHT22;3281;47.658;9.166;2022-09-09T04:32:50;16.20;27.10
6496;DHT22;3281;47.658;9.166;2022-09-09T04:35:17;16.10;30.70
6496;DHT22;3281;47.658;9.166;2022-09-09T04:37:45;16.20;26.60
6496;DHT22;3281;47.658;9.166;2022-09-09T04:40:13;16.10;26.40
6496;DHT22;3281;47.658;9.166;2022-09-09T04:42:40;16.00;22.90
6496;DHT22;3281;47.658;9.166;2022-09-09T04:45:10;16.00;29.60
6496;DHT22;3281;47.658;9.166;2022-09-09T04:47:39;16.00;30.70
6496;DHT22;3281;47.658;9.166;2022-09-09T04:50:07;16.10;32.40
6496;DHT22;3281;47.658;9.166;2022-09-09T04:52:34;16.00;29.70
6496;DHT22;3281;47.658;9.166;2022-09-09T04:55:01;16.00;27.00
6496;DHT22;3281;47.658;9.166;2022-09-09T04:57:28;16.00;30.80
6496;DHT22;3281;47.658;9.166;2022-09-09T04:59:57;16.00;35.40
6496;DHT22;3281;47.658;9.166;2022-09-09T05:02:26;15.80;31.70
6496;DHT22;3281;47.658;9.166;2022-09-09T05:04:53;15.80;34.70
6496;DHT22;3281;47.658;9.166;2022-09-09T05:07:20;15.90;46.80
6496;DHT22;3281;47.658;9.166;2022-09-09T05:09:47;15.80;50.60
6496;DHT22;3281;47.658;9.166;2022-09-09T05:12:14;15.80;51.80
6496;DHT22;3281;47.658;9.166;2022-09-09T05:14:42;15.80;52.20
6496;DHT22;3281;47.658;9.166;2022-09-09T05:17:09;15.60;46.80
6496;DHT22;3281;47.658;9.166;2022-09-09T05:19:38;15.70;51.80
6496;DHT22;3281;47.658;9.166;2022-09-09T05:22:04;15.70;57.40
6496;DHT22;3281;47.658;9.166;2022-09-09T05:24:31;15.60;52.10
6496;DHT22;3281;47.658;9.166;2022-09-09T05:26:58;15.50;49.30
6496;DHT22;3281;47.658;9.166;2022-09-09T05:29:27;15.50;51.70
6496;DHT22;3281;47.658;9.166;2022-09-09T05:31:54;15.60;57.30
6496;DHT22;3281;47.658;9.166;2022-09-09T05:34:21;15.60;56.80
6496;DHT22;3281;47.658;9.166;2022-09-09T05:36:49;15.60;59.50
6496;DHT22;3281;47.658;9.166;2022-09-09T05:39:17;15.70;62.00
6496;DHT22;3281;47.658;9.166;2022-09-09T05:41:43;15.60;60.20
6496;DHT22;3281;47.658;9.166;2022-09-09T05:44:10;15.60;57.30
6496;DHT22;3281;47.658;9.166;2022-09-09T05:46:37;15.60;52.20
6496;DHT22;3281;47.658;9.166;2022-09-09T05:49:04;15.60;52.60
6496;DHT22;3281;47.658;9.166;2022-09-09T05:51:31;15.70;57.70
6496;DHT22;3281;47.658;9.166;2022-09-09T05:53:59;15.70;55.60
6496;DHT22;3281;47.658;9.166;2022-09-09T05:56:27;15.70;57.30
6496;DHT22;3281;47.658;9.166;2022-09-09T05:58:55;15.70;58.80
6496;DHT22;3281;47.658;9.166;2022-09-09T06:01:24;15.70;57.60
6496;DHT22;3281;47.658;9.166;2022-09-09T06:03:52;15.70;58.90
6496;DHT22;3281;47.658;9.166;2022-09-09T06:06:20;15.70;58.20
6496;DHT22;3281;47.658;9.166;2022-09-09T06:08:48;15.70;57.40
6496;DHT22;3281;47.658;9.166;2022-09-09T06:11:19;15.80;63.00
6496;DHT22;3281;47.658;9.166;2022-09-09T06:13:46;15.80;63.00
6496;DHT22;3281;47.658;9.166;2022-09-09T06:16:16;15.80;63.30
6496;DHT22;3281;47.658;9.166;2022-09-09T06:18:43;15.80;59.40
6496;DHT22;3281;47.658;9.166;2022-09-09T06:21:15;15.70;57.30
6496;DHT22;3281;47.658;9.166;2022-09-09T06:23:42;15.80;57.40
6496;DHT22;3281;47.658;9.166;2022-09-09T06:26:11;15.80;60.80
6496;DHT22;3281;47.658;9.166;2022-09-09T06:28:40;15.80;63.00
6496;DHT22;3281;47.658;9.166;2022-09-09T06:31:09;15.80;63.00
6496;DHT22;3281;47.658;9.166;2022-09-09T06:33:38;15.80;57.30
6496;DHT22;3281;47.658;9.166;2022-09-09T06:36:07;15.80;60.00
6496;DHT22;3281;47.658;9.166;2022-09-09T06:38:36;15.80;60.00
6496;DHT22;3281;47.658;9.166;2022-09-09T06:41:03;15.90;63.50
6496;DHT22;3281;47.658;9.166;2022-09-09T06:43:31;15.80;54.70
6496;DHT22;3281;47.658;9.166;2022-09-09T06:46:00;15.90;59.50
6496;DHT22;3281;47.658;9.166;2022-09-09T06:48:27;15.90;60.00
6496;DHT22;3281;47.658;9.166;2022-09-09T06:51:02;16.00;63.70
6496;DHT22;3281;47.658;9.166;2022-09-09T06:53:29;15.90;62.50
6496;DHT22;3281;47.658;9.166;2022-09-09T06:55:56;16.00;63.90
6496;DHT22;3281;47.658;9.166;2022-09-09T06:58:23;16.10;66.70
6496;DHT22;3281;47.658;9.166;2022-09-09T07:00:49;16.10;59.60
6496;DHT22;3281;47.658;9.166;2022-09-09T07:03:17;16.10;57.60
6496;DHT22;3281;47.658;9.166;2022-09-09T07:05:54;16.10;57.50
6496;DHT22;3281;47.658;9.166;2022-09-09T07:08:21;16.10;56.50
6496;DHT22;3281;47.658;9.166;2022-09-09T07:10:48;16.10;51.40
6496;DHT22;3281;47.658;9.166;2022-09-09T07:13:15;16.20;56.60
6496;DHT22;3281;47.658;9.166;2022-09-09T07:15:41;16.20;57.90
6496;DHT22;3281;47.658;9.166;2022-09-09T07:18:08;16.20;55.30
6496;DHT22;3281;47.658;9.166;2022-09-09T07:20:37;16.30;54.80
6496;DHT22;3281;47.658;9.166;2022-09-09T07:23:03;16.20;49.40
6496;DHT22;3281;47.658;9.166;2022-09-09T07:25:30;16.30;51.90
6496;DHT22;3281;47.658;9.166;2022-09-09T07:27:57;16.30;49.80
6496;DHT22;3281;47.658;9.166;2022-09-09T07:30:23;16.20;47.70
6496;DHT22;3281;47.658;9.166;2022-09-09T07:32:51;16.20;48.90
6496;DHT22;3281;47.658;9.166;2022-09-09T07:35:17;16.20;50.60
6496;DHT22;3281;47.658;9.166;2022-09-09T07:37:45;16.20;49.60
6496;DHT22;3281;47.658;9.166;2022-09-09T07:40:12;16.30;55.90
6496;DHT22;3281;47.658;9.166;2022-09-09T07:42:39;16.30;53.40
6496;DHT22;3281;47.658;9.166;2022-09-09T07:45:06;16.40;57.70
6496;DHT22;3281;47.658;9.166;2022-09-09T07:47:32;16.50;60.00
6496;DHT22;3281;47.658;9.166;2022-09-09T07:49:59;16.50;58.20
6496;DHT22;3281;47.658;9.166;2022-09-09T07:52:27;16.60;61.90
6496;DHT22;3281;47.658;9.166;2022-09-09T07:54:55;16.60;59.30
6496;DHT22;3281;47.658;9.166;2022-09-09T07:57:22;16.50;51.10
6496;DHT22;3281;47.658;9.166;2022-09-09T07:59:49;16.60;57.50
6496;DHT22;3281;47.658;9.166;2022-09-09T08:02:16;16.70;61.80
6496;DHT22;3281;47.658;9.166;2022-09-09T08:04:42;16.80;64.80
6496;DHT22;3281;47.658;9.166;2022-09-09T08:07:09;16.90;64.10
6496;DHT22;3281;47.658;9.166;2022-09-09T08:09:36;17.00;64.20
6496;DHT22;3281;47.658;9.166;2022-09-09T08:12:05;17.00;61.90
6496;DHT22;3281;47.658;9.166;2022-09-09T08:14:32;17.00;54.40
6496;DHT22;3281;47.658;9.166;2022-09-09T08:16:59;17.10;58.50
6496;DHT22;3281;47.658;9.166;2022-09-09T08:19:25;17.20;59.40
6496;DHT22;3281;47.658;9.166;2022-09-09T08:21:54;17.20;58.00
6496;DHT22;3281;47.658;9.166;2022-09-09T08:24:21;17.20;57.40
6496;DHT22;3281;47.658;9.166;2022-09-09T08:26:49;17.40;60.30
6496;DHT22;3281;47.658;9.166;2022-09-09T08:29:17;17.40;54.60
6496;DHT22;3281;47.658;9.166;2022-09-09T08:31:45;17.40;31.90
6496;DHT22;3281;47.658;9.166;2022-09-09T08:34:13;17.50;48.40
6496;DHT22;3281;47.658;9.166;2022-09-09T08:36:42;17.70;59.40
6496;DHT22;3281;47.658;9.166;2022-09-09T08:39:10;17.80;58.90
6496;DHT22;3281;47.658;9.166;2022-09-09T08:41:50;17.90;56.40
6496;DHT22;3281;47.658;9.166;2022-09-09T08:44:29;18.10;52.10
6496;DHT22;3281;47.658;9.166;2022-09-09T08:47:03;18.20;46.00
6496;DHT22;3281;47.658;9.166;2022-09-09T08:49:44;18.40;31.10
6496;DHT22;3281;47.658;9.166;2022-09-09T08:52:19;18.40;26.90
6496;DHT22;3281;47.658;9.166;2022-09-09T08:54:46;18.40;18.30
6496;DHT22;3281;47.658;9.166;2022-09-09T08:57:17;18.40;19.10
6496;DHT22;3281;47.658;9.166;2022-09-09T08:59:50;18.50;11.80
6496;DHT22;3281;47.658;9.166;2022-09-09T09:02:22;18.60;12.20
6496;DHT22;3281;47.658;9.166;2022-09-09T09:04:58;18.70;14.30
6496;DHT22;3281;47.658;9.166;2022-09-09T09:07:36;18.90;14.40
6496;DHT22;3281;47.658;9.166;2022-09-09T09:10:13;19.10;8.70
6496;DHT22;3281;47.658;9.166;2022-09-09T09:12:43;19.40;12.40
6496;DHT22;3281;47.658;9.166;2022-09-09T09:15:24;19.70;6.40
6496;DHT22;3281;47.658;9.166;2022-09-09T09:17:51;20.10;13.90
6496;DHT22;3281;47.658;9.166;2022-09-09T09:20:24;19.90;9.60
6496;DHT22;3281;47.658;9.166;2022-09-09T09:22:57;19.90;6.00
6496;DHT22;3281;47.658;9.166;2022-09-09T09:25:31;19.50;16.00
6496;DHT22;3281;47.658;9.166;2022-09-09T09:28:01;19.30;12.80
6496;DHT22;3281;47.658;9.166;2022-09-09T09:30:38;19.10;12.70
6496;DHT22;3281;47.658;9.166;2022-09-09T09:33:14;19.10;9.50
6496;DHT22;3281;47.658;9.166;2022-09-09T09:35:41;19.00;9.60
6496;DHT22;3281;47.658;9.166;2022-09-09T09:38:16;18.80;14.50
6496;DHT22;3281;47.658;9.166;2022-09-09T09:40:49;18.70;12.20
6496;DHT22;3281;47.658;9.166;2022-09-09T09:43:22;18.70;16.20
6496;DHT22;3281;47.658;9.166;2022-09-09T09:45:51;18.60;5.90
6496;DHT22;3281;47.658;9.166;2022-09-09T09:48:18;18.70;8.40
6496;DHT22;3281;47.658;9.166;2022-09-09T09:50:49;18.90;10.10
6496;DHT22;3281;47.658;9.166;2022-09-09T09:53:21;18.80;12.10
6496;DHT22;3281;47.658;9.166;2022-09-09T09:55:53;18.70;11.20
6496;DHT22;3281;47.658;9.166;2022-09-09T09:58:20;18.90;8.10
6496;DHT22;3281;47.658;9.166;2022-09-09T10:00:48;19.00;3.50
6496;DHT22;3281;47.658;9.166;2022-09-09T10:03:25;18.80;14.40
6496;DHT22;3281;47.658;9.166;2022-09-09T10:05:53;18.80;4.80
6496;DHT22;3281;47.658;9.166;2022-09-09T10:08:22;19.00;7.00
6496;DHT22;3281;47.658;9.166;2022-09-09T10:11:23;18.90;2.80
6496;DHT22;3281;47.658;9.166;2022-09-09T10:14:00;18.80;1.00
6496;DHT22;3281;47.658;9.166;2022-09-09T10:16:39;18.70;1.00
6496;DHT22;3281;47.658;9.166;2022-09-09T10:19:14;18.70;1.10
6496;DHT22;3281;47.658;9.166;2022-09-09T10:21:56;18.80;1.00
6496;DHT22;3281;47.658;9.166;2022-09-09T10:24:58;18.80;1.00
6496;DHT22;3281;47.658;9.166;2022-09-09T10:27:33;18.80;1.40
6496;DHT22;3281;47.658;9.166;2022-09-09T10:30:12;18.90;1.00
6496;DHT22;3281;47.658;9.166;2022-09-09T10:32:46;18.80;1.00
6496;DHT22;3281;47.658;9.166;2022-09-09T10:35:25;18.70;1.00
6496;DHT22;3281;47.658;9.166;2022-09-09T10:38:12;18.70;7.50
6496;DHT22;3281;47.658;9.166;2022-09-09T10:40:45;18.70;8.40
6496;DHT22;3281;47.658;9.166;2022-09-09T10:43:26;18.70;1.00
6496;DHT22;3281;47.658;9.166;2022-09-09T10:46:02;18.80;1.00
6496;DHT22;3281;47.658;9.166;2022-09-09T10:48:41;19.00;1.00
6496;DHT22;3281;47.658;9.166;2022-09-09T10:51:21;19.20;1.00
6496;DHT22;3281;47.658;9.166;2022-09-09T10:53:57;19.30;1.00
6496;DHT22;3281;47.658;9.166;2022-09-09T10:56:29;19.30;1.00
6496;DHT22;3281;47.658;9.166;2022-09-09T10:58:59;19.30;1.00
6496;DHT22;3281;47.658;9.166;2022-09-09T11:01:29;19.20;1.00
6496;DHT22;3281;47.658;9.166;2022-09-09T11:04:02;19.30;1.00
6496;DHT22;3281;47.658;9.166;2022-09-09T11:06:37;19.40;1.00
6496;DHT22;3281;47.658;9.166;2022-09-09T11:09:09;19.30;1.00
6496;DHT22;3281;47.658;9.166;2022-09-09T11:11:45;19.20;1.00
6496;DHT22;3281;47.658;9.166;2022-09-09T11:14:19;19.00;1.00
6496;DHT22;3281;47.658;9.166;2022-09-09T11:16:50;18.90;1.00
6496;DHT22;3281;47.658;9.166;2022-09-09T11:19:24;18.70;1.00
6496;DHT22;3281;47.658;9.166;2022-09-09T11:21:53;18.70;1.00
6496;DHT22;3281;47.658;9.166;2022-09-09T11:24:26;18.60;1.00
6496;DHT22;3281;47.658;9.166;2022-09-09T11:26:58;18.60;1.00
6496;DHT22;3281;47.658;9.166;2022-09-09T11:33:15;18.80;1.00
6496;DHT22;3281;47.658;9.166;2022-09-09T11:35:56;19.10;1.00
6496;DHT22;3281;47.658;9.166;2022-09-09T11:38:28;19.20;1.00
6496;DHT22;3281;47.658;9.166;2022-09-09T11:40:57;19.20;1.00
6496;DHT22;3281;47.658;9.166;2022-09-09T11:43:29;19.40;1.00
6496;DHT22;3281;47.658;9.166;2022-09-09T11:45:59;19.50;1.00
6496;DHT22;3281;47.658;9.166;2022-09-09T11:48:32;19.60;1.00
6496;DHT22;3281;47.658;9.166;2022-09-09T11:51:02;19.60;1.00
6496;DHT22;3281;47.658;9.166;2022-09-09T11:53:32;19.50;1.00
6496;DHT22;3281;47.658;9.166;2022-09-09T11:56:26;19.40;1.00
6496;DHT22;3281;47.658;9.166;2022-09-09T11:58:56;19.30;1.00
6496;DHT22;3281;47.658;9.166;2022-09-09T12:01:37;19.10;1.00
6496;DHT22;3281;47.658;9.166;2022-09-09T12:04:32;19.10;1.00
6496;DHT22;3281;47.658;9.166;2022-09-09T12:07:04;19.10;1.00
6496;DHT22;3281;47.658;9.166;2022-09-09T12:09:46;19.30;1.00
6496;DHT22;3281;47.658;9.166;2022-09-09T12:12:29;19.40;1.00
6496;DHT22;3281;47.658;9.166;2022-09-09T12:14:59;19.50;1.00
6496;DHT22;3281;47.658;9.166;2022-09-09T12:17:27;19.60;1.00
6496;DHT22;3281;47.658;9.166;2022-09-09T12:20:04;19.60;1.00
6496;DHT22;3281;47.658;9.166;2022-09-09T12:22:40;19.60;1.00
6496;DHT22;3281;47.658;9.166;2022-09-09T12:25:18;19.60;1.00
6496;DHT22;3281;47.658;9.166;2022-09-09T12:27:58;19.60;1.00
6496;DHT22;3281;47.658;9.166;2022-09-09T12:30:29;19.70;1.00
6496;DHT22;3281;47.658;9.166;2022-09-09T12:33:02;19.80;1.00
6496;DHT22;3281;47.658;9.166;2022-09-09T12:35:30;20.00;1.00
6496;DHT22;3281;47.658;9.166;2022-09-09T12:38:00;20.00;1.00
6496;DHT22;3281;47.658;9.166;2022-09-09T12:40:31;20.00;1.00
6496;DHT22;3281;47.658;9.166;2022-09-09T12:43:00;19.90;1.00
6496;DHT22;3281;47.658;9.166;2022-09-09T12:45:30;20.00;1.00
6496;DHT22;3281;47.658;9.166;2022-09-09T12:48:00;20.00;1.00
6496;DHT22;3281;47.658;9.166;2022-09-09T12:50:30;20.00;1.00
6496;DHT22;3281;47.658;9.166;2022-09-09T12:52:59;20.00;1.00
6496;DHT22;3281;47.658;9.166;2022-09-09T12:55:31;20.20;1.00
6496;DHT22;3281;47.658;9.166;2022-09-09T12:58:01;20.10;1.00
6496;DHT22;3281;47.658;9.166;2022-09-09T13:00:30;20.10;1.00
6496;DHT22;3281;47.658;9.166;2022-09-09T13:02:58;20.00;1.00
6496;DHT22;3281;47.658;9.166;2022-09-09T13:05:27;20.10;1.00
6496;DHT22;3281;47.658;9.166;2022-09-09T13:08:01;20.30;1.00
6496;DHT22;3281;47.658;9.166;2022-09-09T13:10:33;20.40;1.00
6496;DHT22;3281;47.658;9.166;2022-09-09T13:13:00;20.40;1.00
6496;DHT22;3281;47.658;9.166;2022-09-09T13:15:28;20.30;1.00
6496;DHT22;3281;47.658;9.166;2022-09-09T13:17:57;20.30;1.00
6496;DHT22;3281;47.658;9.166;2022-09-09T13:20:26;20.40;1.00
6496;DHT22;3281;47.658;9.166;2022-09-09T13:22:54;20.40;1.00
6496;DHT22;3281;47.658;9.166;2022-09-09T13:25:24;20.30;1.00
6496;DHT22;3281;47.658;9.166;2022-09-09T13:27:55;20.20;1.00
6496;DHT22;3281;47.658;9.166;2022-09-09T13:30:26;20.40;1.00
6496;DHT22;3281;47.658;9.166;2022-09-09T13:33:05;20.40;1.00
6496;DHT22;3281;47.658;9.166;2022-09-09T13:35:33;20.50;1.00
6496;DHT22;3281;47.658;9.166;2022-09-09T13:38:06;20.60;1.00
6496;DHT22;3281;47.658;9.166;2022-09-09T13:40:34;20.60;1.00
6496;DHT22;3281;47.658;9.166;2022-09-09T13:43:03;20.70;1.00
6496;DHT22;3281;47.658;9.166;2022-09-09T13:45:31;20.60;1.00
6496;DHT22;3281;47.658;9.166;2022-09-09T13:48:09;20.60;1.00
6496;DHT22;3281;47.658;9.166;2022-09-09T13:50:36;20.60;1.00
6496;DHT22;3281;47.658;9.166;2022-09-09T13:53:02;20.70;1.00
6496;DHT22;3281;47.658;9.166;2022-09-09T13:55:30;20.70;1.00
6496;DHT22;3281;47.658;9.166;2022-09-09T13:57:58;20.60;1.00
6496;DHT22;3281;47.658;9.166;2022-09-09T14:00:29;20.60;1.00
6496;DHT22;3281;47.658;9.166;2022-09-09T14:02:56;20.40;1.00
6496;DHT22;3281;47.658;9.166;2022-09-09T14:05:23;20.50;1.00
6496;DHT22;3281;47.658;9.166;2022-09-09T14:07:50;20.70;1.00
6496;DHT22;3281;47.658;9.166;2022-09-09T14:10:17;20.70;1.00
6496;DHT22;3281;47.658;9.166;2022-09-09T14:12:44;20.80;1.00
6496;DHT22;3281;47.658;9.166;2022-09-09T14:15:12;20.80;1.00
6496;DHT22;3281;47.658;9.166;2022-09-09T14:17:41;20.70;1.00
6496;DHT22;3281;47.658;9.166;2022-09-09T14:20:09;20.50;1.00
6496;DHT22;3281;47.658;9.166;2022-09-09T14:22:37;20.40;1.00
6496;DHT22;3281;47.658;9.166;2022-09-09T14:25:07;20.40;1.00
6496;DHT22;3281;47.658;9.166;2022-09-09T14:27:34;20.40;1.00
6496;DHT22;3281;47.658;9.166;2022-09-09T14:30:01;20.40;1.00
6496;DHT22;3281;47.658;9.166;2022-09-09T14:32:27;20.30;1.00
6496;DHT22;3281;47.658;9.166;2022-09-09T14:34:55;20.40;1.00
6496;DHT22;3281;47.658;9.166;2022-09-09T14:37:22;20.40;1.00
6496;DHT22;3281;47.658;9.166;2022-09-09T14:39:49;20.30;1.00
6496;DHT22;3281;47.658;9.166;2022-09-09T14:42:16;20.40;1.00
6496;DHT22;3281;47.658;9.166;2022-09-09T14:44:44;20.30;1.00
6496;DHT22;3281;47.658;9.166;2022-09-09T14:47:10;20.20;1.00
6496;DHT22;3281;47.658;9.166;2022-09-09T14:49:38;20.10;1.00
6496;DHT22;3281;47.658;9.166;2022-09-09T14:52:06;20.00;1.00
6496;DHT22;3281;47.658;9.166;2022-09-09T14:54:34;20.00;1.00
6496;DHT22;3281;47.658;9.166;2022-09-09T14:57:01;19.90;1.00
6496;DHT22;3281;47.658;9.166;2022-09-09T14:59:28;19.80;1.00
6496;DHT22;3281;47.658;9.166;2022-09-09T15:01:54;19.80;1.00
6496;DHT22;3281;47.658;9.166;2022-09-09T15:04:21;19.80;1.00
6496;DHT22;3281;47.658;9.166;2022-09-09T15:06:48;19.90;1.00
6496;DHT22;3281;47.658;9.166;2022-09-09T15:09:19;19.90;1.00
6496;DHT22;3281;47.658;9.166;2022-09-09T15:11:45;19.90;1.00
6496;DHT22;3281;47.658;9.166;2022-09-09T15:14:12;20.00;1.00
6496;DHT22;3281;47.658;9.166;2022-09-09T15:16:39;20.00;1.00
6496;DHT22;3281;47.658;9.166;2022-09-09T15:19:06;20.00;1.00
6496;DHT22;3281;47.658;9.166;2022-09-09T15:21:36;20.10;1.00
6496;DHT22;3281;47.658;9.166;2022-09-09T15:24:03;20.20;1.00
6496;DHT22;3281;47.658;9.166;2022-09-09T15:26:32;20.30;1.00
6496;DHT22;3281;47.658;9.166;2022-09-09T15:28:59;20.30;1.00
6496;DHT22;3281;47.658;9.166;2022-09-09T15:31:28;20.40;1.00
6496;DHT22;3281;47.658;9.166;2022-09-09T15:33:57;20.50;1.00
6496;DHT22;3281;47.658;9.166;2022-09-09T15:36:27;20.50;1.00
6496;DHT22;3281;47.658;9.166;2022-09-09T15:38:55;20.50;1.00
6496;DHT22;3281;47.658;9.166;2022-09-09T15:41:22;20.60;1.00
6496;DHT22;3281;47.658;9.166;2022-09-09T15:43:52;20.70;1.00
6496;DHT22;3281;47.658;9.166;2022-09-09T15:46:24;20.70;1.00
6496;DHT22;3281;47.658;9.166;2022-09-09T15:48:53;20.70;1.00
6496;DHT22;3281;47.658;9.166;2022-09-09T15:51:21;20.70;1.00
6496;DHT22;3281;47.658;9.166;2022-09-09T15:53:48;20.60;1.00
6496;DHT22;3281;47.658;9.166;2022-09-09T15:56:15;20.50;1.00
6496;DHT22;3281;47.658;9.166;2022-09-09T15:58:42;20.50;1.00
6496;DHT22;3281;47.658;9.166;2022-09-09T16:01:11;20.50;1.00
6496;DHT22;3281;47.658;9.166;2022-09-09T16:03:39;20.40;1.00
6496;DHT22;3281;47.658;9.166;2022-09-09T16:06:07;20.30;1.00
6496;DHT22;3281;47.658;9.166;2022-09-09T16:08:35;20.20;1.00
6496;DHT22;3281;47.658;9.166;2022-09-09T16:11:06;20.20;1.00
6496;DHT22;3281;47.658;9.166;2022-09-09T16:13:35;20.20;1.00
6496;DHT22;3281;47.658;9.166;2022-09-09T16:16:02;20.00;1.00
6496;DHT22;3281;47.658;9.166;2022-09-09T16:18:35;20.10;1.00
6496;DHT22;3281;47.658;9.166;2022-09-09T16:21:02;20.00;1.00
6496;DHT22;3281;47.658;9.166;2022-09-09T16:23:30;19.90;1.00
6496;DHT22;3281;47.658;9.166;2022-09-09T16:25:57;20.00;1.00
6496;DHT22;3281;47.658;9.166;2022-09-09T16:28:24;20.00;1.00
6496;DHT22;3281;47.658;9.166;2022-09-09T16:30:51;20.00;1.00